Time;durP1;ratioP1;P1;durP2;ratioP2;P2;SDS_P1;SDS_P2;PMS_P1;PMS_P2;Temp;Humidity;BMP_temperature;BMP_pressure;BME280_temperature;BME280_humidity;BME280_pressure;Samples;Min_cycle;Max_cycle;Signal;HPM_P1;HPM_P2
2021/09/01 00:02:22;;;;;;;7.85;6.75;;;;;;;;;;5074424;28;20454;-74
2021/09/01 00:04:48;;;;;;;8.20;7.38;;;;;;;;;;5074500;28;20029;-74
2021/09/01 00:07:14;;;;;;;7.60;6.65;;;;;;;;;;5074387;28;20481;-74
2021/09/01 00:09:40;;;;;;;8.45;6.18;;;;;;;;;;5073857;28;20481;-75
2021/09/01 00:12:07;;;;;;;7.28;6.57;;;;;;;;;;5074508;28;20086;-74
2021/09/01 00:14:33;;;;;;;7.90;6.30;;;;;;;;;;5074114;28;20025;-74
2021/09/01 00:17:00;;;;;;;7.30;6.00;;;;;;;;;;5074291;28;20382;-74
2021/09/01 00:19:26;;;;;;;10.88;6.18;;;;;;;;;;5073764;28;20103;-75
2021/09/01 00:21:52;;;;;;;6.35;5.75;;;;;;;;;;5074738;28;20025;-74
2021/09/01 00:24:18;;;;;;;8.65;7.47;;;;;;;;;;5074510;28;20100;-74
2021/09/01 00:26:44;;;;;;;7.72;6.90;;;;;;;;;;5074063;28;20154;-74
2021/09/01 00:29:10;;;;;;;10.57;5.80;;;;;;;;;;5074332;28;20029;-74
2021/09/01 00:31:36;;;;;;;6.68;6.00;;;;;;;;;;5073695;28;20021;-74
2021/09/01 00:34:02;;;;;;;8.23;6.07;;;;;;;;;;5073834;28;20024;-74
2021/09/01 00:36:28;;;;;;;6.47;5.88;;;;;;;;;;5074296;28;20017;-74
2021/09/01 00:38:54;;;;;;;6.03;5.43;;;;;;;;;;5074062;28;20107;-73
2021/09/01 00:41:24;;;;;;;6.28;5.65;;;;;;;;;;5074025;28;20025;-74
2021/09/01 00:43:50;;;;;;;5.80;5.15;;;;;;;;;;5073735;28;20032;-74
2021/09/01 00:46:17;;;;;;;5.90;5.28;;;;;;;;;;5073438;28;20074;-74
2021/09/01 00:48:43;;;;;;;6.22;5.63;;;;;;;;;;5073365;28;20441;-74
2021/09/01 00:51:09;;;;;;;6.20;5.43;;;;;;;;;;5074000;28;20036;-74
2021/09/01 00:53:35;;;;;;;7.22;5.80;;;;;;;;;;5073548;28;20020;-75
2021/09/01 00:56:01;;;;;;;8.02;5.57;;;;;;;;;;5073783;28;20123;-74
2021/09/01 00:58:34;;;;;;;5.63;5.10;;;;;;;;;;5073408;28;20043;-74
2021/09/01 01:01:15;;;;;;;4.50;4.13;;;;;;;;;;5073633;28;20104;-74
2021/09/01 01:03:41;;;;;;;8.65;5.15;;;;;;;;;;5072837;28;20032;-74
2021/09/01 01:06:08;;;;;;;6.85;5.15;;;;;;;;;;5073711;28;20363;-74
2021/09/01 01:08:34;;;;;;;8.02;5.28;;;;;;;;;;5073679;28;20484;-74
2021/09/01 01:11:01;;;;;;;6.03;5.25;;;;;;;;;;5073304;28;20407;-74
2021/09/01 01:13:27;;;;;;;7.50;5.35;;;;;;;;;;5073179;28;20071;-74
2021/09/01 01:15:54;;;;;;;4.82;4.22;;;;;;;;;;5073433;28;20020;-74
2021/09/01 01:18:20;;;;;;;5.90;4.55;;;;;;;;;;5073557;28;20044;-74
2021/09/01 01:20:48;;;;;;;4.40;3.78;;;;;;;;;;5073667;28;20032;-74
2021/09/01 01:23:14;;;;;;;5.07;4.53;;;;;;;;;;5073425;28;20024;-74
2021/09/01 01:25:40;;;;;;;4.65;4.25;;;;;;;;;;5072964;28;20025;-74
2021/09/01 01:28:06;;;;;;;4.45;4.10;;;;;;;;;;5072905;28;20028;-74
2021/09/01 01:30:32;;;;;;;5.35;4.85;;;;;;;;;;5073304;28;20488;-74
2021/09/01 01:32:58;;;;;;;5.60;5.05;;;;;;;;;;5073237;28;20406;-74
2021/09/01 01:35:28;;;;;;;5.05;4.22;;;;;;;;;;5073150;28;20428;-74
2021/09/01 01:37:55;;;;;;;4.07;3.65;;;;;;;;;;5073386;28;20111;-74
2021/09/01 01:40:21;;;;;;;4.85;4.32;;;;;;;;;;5073182;28;20017;-74
2021/09/01 01:42:48;;;;;;;4.50;4.10;;;;;;;;;;5073112;28;20051;-74
2021/09/01 01:45:15;;;;;;;4.53;3.85;;;;;;;;;;5073171;28;20051;-74
2021/09/01 01:47:41;;;;;;;5.15;4.03;;;;;;;;;;5072807;28;20486;-74
2021/09/01 01:50:07;;;;;;;4.50;4.10;;;;;;;;;;5073553;28;20081;-74
2021/09/01 01:52:33;;;;;;;4.07;3.72;;;;;;;;;;5073461;28;20142;-74
2021/09/01 01:55:00;;;;;;;4.05;3.67;;;;;;;;;;5072851;28;20053;-74
2021/09/01 01:57:26;;;;;;;4.22;3.45;;;;;;;;;;5072534;28;20032;-75
2021/09/01 01:59:52;;;;;;;4.00;3.70;;;;;;;;;;5072920;28;20024;-74
2021/09/01 02:02:18;;;;;;;4.28;3.53;;;;;;;;;;5072899;28;20064;-74
2021/09/01 02:04:44;;;;;;;3.50;3.20;;;;;;;;;;5072726;28;20494;-74
2021/09/01 02:07:10;;;;;;;3.75;3.45;;;;;;;;;;5072951;28;20027;-74
2021/09/01 02:09:36;;;;;;;4.45;3.78;;;;;;;;;;5072476;28;20028;-74
2021/09/01 02:12:02;;;;;;;7.43;3.72;;;;;;;;;;5072494;28;20117;-75
2021/09/01 02:14:28;;;;;;;4.78;3.20;;;;;;;;;;5075368;28;20070;-74
2021/09/01 02:16:54;;;;;;;3.30;3.00;;;;;;;;;;5076563;28;20028;-74
2021/09/01 02:19:20;;;;;;;6.32;3.03;;;;;;;;;;5076503;28;20474;-74
2021/09/01 02:21:46;;;;;;;4.13;3.60;;;;;;;;;;5076230;28;20024;-73
2021/09/01 02:24:12;;;;;;;3.72;3.33;;;;;;;;;;5076428;28;20017;-74
2021/09/01 02:26:38;;;;;;;3.22;2.97;;;;;;;;;;5076256;28;20032;-74
2021/09/01 02:29:04;;;;;;;4.40;3.72;;;;;;;;;;5076343;28;20033;-74
2021/09/01 02:31:30;;;;;;;3.63;3.33;;;;;;;;;;5076026;28;20100;-74
2021/09/01 02:33:56;;;;;;;3.50;3.20;;;;;;;;;;5076332;28;20028;-73
2021/09/01 02:36:22;;;;;;;4.05;3.25;;;;;;;;;;5076084;28;20119;-73
2021/09/01 02:38:49;;;;;;;3.78;2.95;;;;;;;;;;5076233;28;20036;-74
2021/09/01 02:41:15;;;;;;;3.80;3.00;;;;;;;;;;5075991;28;20016;-74
2021/09/01 02:43:41;;;;;;;3.10;2.72;;;;;;;;;;5075874;28;20051;-74
2021/09/01 02:46:07;;;;;;;4.38;2.72;;;;;;;;;;5075845;28;20122;-74
2021/09/01 02:48:33;;;;;;;2.80;2.60;;;;;;;;;;5075959;28;20067;-74
2021/09/01 02:50:59;;;;;;;3.15;2.83;;;;;;;;;;5076111;28;20035;-74
2021/09/01 02:53:25;;;;;;;3.78;3.47;;;;;;;;;;5075628;28;20072;-75
2021/09/01 02:55:51;;;;;;;3.33;3.03;;;;;;;;;;5076268;28;20063;-74
2021/09/01 02:58:17;;;;;;;2.72;2.40;;;;;;;;;;5075839;28;20024;-74
2021/09/01 03:00:43;;;;;;;3.38;3.03;;;;;;;;;;5075879;28;20025;-74
2021/09/01 03:03:09;;;;;;;3.25;2.95;;;;;;;;;;5075857;28;20386;-74
2021/09/01 03:05:35;;;;;;;4.22;2.78;;;;;;;;;;5075569;28;20044;-73
2021/09/01 03:08:01;;;;;;;3.10;2.80;;;;;;;;;;5075609;28;20068;-74
2021/09/01 03:10:27;;;;;;;2.85;2.55;;;;;;;;;;5075483;28;20532;-74
2021/09/01 03:12:53;;;;;;;2.67;2.22;;;;;;;;;;5075239;28;20025;-73
2021/09/01 03:15:19;;;;;;;2.55;2.20;;;;;;;;;;5075568;28;20017;-74
2021/09/01 03:17:45;;;;;;;2.65;2.42;;;;;;;;;;5075667;28;20478;-74
2021/09/01 03:20:12;;;;;;;2.63;2.42;;;;;;;;;;5076026;28;20032;-74
2021/09/01 03:22:38;;;;;;;2.88;2.67;;;;;;;;;;5075215;28;20025;-74
2021/09/01 03:25:04;;;;;;;2.70;2.40;;;;;;;;;;5074624;28;20173;-74
2021/09/01 03:27:30;;;;;;;3.20;2.45;;;;;;;;;;5074887;28;20025;-74
2021/09/01 03:29:56;;;;;;;2.28;2.08;;;;;;;;;;5075762;28;20020;-74
2021/09/01 03:32:22;;;;;;;2.88;2.63;;;;;;;;;;5075248;28;20139;-73
2021/09/01 03:34:48;;;;;;;2.30;2.10;;;;;;;;;;5075499;28;20363;-74
2021/09/01 03:37:14;;;;;;;2.20;2.00;;;;;;;;;;5074906;28;20548;-74
2021/09/01 03:39:40;;;;;;;3.92;2.35;;;;;;;;;;5074547;28;20531;-74
2021/09/01 03:42:06;;;;;;;3.22;2.13;;;;;;;;;;5074829;28;20016;-74
2021/09/01 03:44:33;;;;;;;2.67;2.13;;;;;;;;;;5074829;28;20039;-74
2021/09/01 03:46:59;;;;;;;3.25;2.75;;;;;;;;;;5075241;28;20496;-74
2021/09/01 03:49:25;;;;;;;2.40;2.17;;;;;;;;;;5074561;28;20478;-75
2021/09/01 03:51:51;;;;;;;2.53;2.33;;;;;;;;;;5074869;28;20032;-74
2021/09/01 03:54:17;;;;;;;2.20;2.00;;;;;;;;;;5074363;28;20052;-74
2021/09/01 03:56:43;;;;;;;2.17;1.98;;;;;;;;;;5074287;28;20024;-74
2021/09/01 03:59:09;;;;;;;2.20;2.00;;;;;;;;;;5074776;28;20048;-74
2021/09/01 04:01:35;;;;;;;2.40;2.03;;;;;;;;;;5074247;28;20032;-73
2021/09/01 04:04:01;;;;;;;2.35;2.03;;;;;;;;;;5074918;28;20024;-74
2021/09/01 04:06:27;;;;;;;1.60;1.50;;;;;;;;;;5074329;28;20129;-74
2021/09/01 04:08:54;;;;;;;2.88;2.65;;;;;;;;;;5074345;28;20028;-74
2021/09/01 04:11:20;;;;;;;2.22;2.03;;;;;;;;;;5073982;28;20025;-74
2021/09/01 04:13:46;;;;;;;4.03;1.90;;;;;;;;;;5074119;28;20082;-74
2021/09/01 04:16:12;;;;;;;2.92;2.63;;;;;;;;;;5074186;28;20027;-75
2021/09/01 04:18:38;;;;;;;2.33;2.13;;;;;;;;;;5074356;28;20033;-74
2021/09/01 04:21:04;;;;;;;2.30;2.10;;;;;;;;;;5074175;28;20103;-73
2021/09/01 04:23:30;;;;;;;2.38;2.17;;;;;;;;;;5074006;28;20107;-74
2021/09/01 04:25:56;;;;;;;2.58;2.38;;;;;;;;;;5073632;28;20386;-74
2021/09/01 04:28:22;;;;;;;2.10;1.90;;;;;;;;;;5074559;28;20090;-74
2021/09/01 04:30:48;;;;;;;3.72;2.17;;;;;;;;;;5073993;28;20070;-74
2021/09/01 04:33:14;;;;;;;1.98;1.85;;;;;;;;;;5073947;28;20060;-74
2021/09/01 04:35:40;;;;;;;1.88;1.77;;;;;;;;;;5073549;28;20076;-74
2021/09/01 04:38:06;;;;;;;3.38;2.33;;;;;;;;;;5073069;28;20028;-74
2021/09/01 04:40:32;;;;;;;1.92;1.75;;;;;;;;;;5073405;28;20067;-74
2021/09/01 04:42:58;;;;;;;2.17;1.77;;;;;;;;;;5073741;28;20458;-74
2021/09/01 04:45:24;;;;;;;2.35;2.15;;;;;;;;;;5073700;28;20025;-74
2021/09/01 04:47:50;;;;;;;4.65;1.83;;;;;;;;;;5074138;28;20044;-74
2021/09/01 04:50:16;;;;;;;2.38;2.13;;;;;;;;;;5073741;28;20073;-74
2021/09/01 04:52:43;;;;;;;2.22;2.03;;;;;;;;;;5073443;28;20024;-74
2021/09/01 04:55:09;;;;;;;2.38;1.63;;;;;;;;;;5073509;28;20040;-74
2021/09/01 04:57:35;;;;;;;2.03;1.83;;;;;;;;;;5073452;28;20025;-74
2021/09/01 05:00:01;;;;;;;1.80;1.67;;;;;;;;;;5074124;28;20347;-73
2021/09/01 05:02:27;;;;;;;2.17;1.77;;;;;;;;;;5073459;28;20389;-74
2021/09/01 05:04:53;;;;;;;2.00;1.80;;;;;;;;;;5073637;28;20024;-74
2021/09/01 05:07:19;;;;;;;2.05;1.77;;;;;;;;;;5073377;28;20024;-74
2021/09/01 05:09:45;;;;;;;2.33;1.98;;;;;;;;;;5073206;28;20032;-74
2021/09/01 05:12:11;;;;;;;1.63;1.52;;;;;;;;;;5073494;28;20086;-74
2021/09/01 05:14:37;;;;;;;2.28;1.90;;;;;;;;;;5073471;28;20024;-74
2021/09/01 05:17:04;;;;;;;2.20;2.00;;;;;;;;;;5073601;28;20032;-74
2021/09/01 05:19:30;;;;;;;1.95;1.77;;;;;;;;;;5073229;28;20024;-75
2021/09/01 05:21:56;;;;;;;2.03;1.85;;;;;;;;;;5073371;28;20081;-74
2021/09/01 05:24:23;;;;;;;1.80;1.70;;;;;;;;;;5073143;28;20028;-74
2021/09/01 05:26:49;;;;;;;1.80;1.60;;;;;;;;;;5073297;28;20033;-74
2021/09/01 05:29:15;;;;;;;2.50;1.90;;;;;;;;;;5073296;28;20082;-74
2021/09/01 05:31:41;;;;;;;2.13;1.95;;;;;;;;;;5073031;28;20035;-74
2021/09/01 05:34:08;;;;;;;2.67;2.03;;;;;;;;;;5073092;28;20031;-74
2021/09/01 05:36:34;;;;;;;3.83;2.35;;;;;;;;;;5073362;28;20025;-74
2021/09/01 05:39:00;;;;;;;7.13;2.63;;;;;;;;;;5073117;28;20029;-75
2021/09/01 05:41:28;;;;;;;2.15;1.95;;;;;;;;;;5070593;28;20120;-76
2021/09/01 05:43:54;;;;;;;1.73;1.63;;;;;;;;;;5073548;28;20021;-75
2021/09/01 05:46:20;;;;;;;2.97;1.83;;;;;;;;;;5073229;28;20025;-76
2021/09/01 05:48:46;;;;;;;2.10;1.90;;;;;;;;;;5074172;28;20036;-79
2021/09/01 05:51:13;;;;;;;2.20;2.00;;;;;;;;;;5078027;28;20025;-78
2021/09/01 05:53:39;;;;;;;2.13;1.73;;;;;;;;;;5076731;28;20035;-75
2021/09/01 05:56:07;;;;;;;2.97;2.00;;;;;;;;;;5077965;28;20048;-76
2021/09/01 05:58:33;;;;;;;1.90;1.80;;;;;;;;;;5076643;28;20060;-77
2021/09/01 06:00:59;;;;;;;1.90;1.73;;;;;;;;;;5077492;28;20025;-75
2021/09/01 06:03:26;;;;;;;2.70;1.70;;;;;;;;;;5076954;28;20024;-75
2021/09/01 06:05:56;;;;;;;2.35;1.77;;;;;;;;;;5077643;28;20099;-77
2021/09/01 06:08:22;;;;;;;2.30;2.08;;;;;;;;;;5076125;28;20044;-76
2021/09/01 06:10:49;;;;;;;2.05;1.85;;;;;;;;;;5077340;28;20351;-75
2021/09/01 06:13:15;;;;;;;1.92;1.67;;;;;;;;;;5076954;28;20062;-77
2021/09/01 06:15:41;;;;;;;2.25;2.00;;;;;;;;;;5076291;28;20035;-75
2021/09/01 06:18:07;;;;;;;2.30;1.73;;;;;;;;;;5075722;28;20025;-76
2021/09/01 06:20:33;;;;;;;2.22;1.58;;;;;;;;;;5077778;28;20024;-77
2021/09/01 06:23:00;;;;;;;2.85;2.30;;;;;;;;;;5076329;28;20356;-75
2021/09/01 06:25:26;;;;;;;2.13;1.90;;;;;;;;;;5076891;28;20021;-78
2021/09/01 06:27:52;;;;;;;2.28;2.08;;;;;;;;;;5075614;28;20044;-75
2021/09/01 06:30:18;;;;;;;1.73;1.63;;;;;;;;;;5076700;28;20112;-75
2021/09/01 06:32:45;;;;;;;2.15;1.95;;;;;;;;;;5076875;28;20020;-77
2021/09/01 06:35:12;;;;;;;2.20;1.80;;;;;;;;;;5077116;28;20025;-76
2021/09/01 06:37:38;;;;;;;4.32;1.65;;;;;;;;;;5074504;28;20398;-73
2021/09/01 06:40:04;;;;;;;3.75;3.42;;;;;;;;;;5076610;28;20028;-77
2021/09/01 06:42:31;;;;;;;15.75;2.70;;;;;;;;;;5076397;28;20025;-75
2021/09/01 06:44:57;;;;;;;3.10;2.20;;;;;;;;;;5076743;28;20103;-76
2021/09/01 06:47:23;;;;;;;4.93;2.28;;;;;;;;;;5074799;28;20557;-78
2021/09/01 06:49:49;;;;;;;2.83;2.30;;;;;;;;;;5076076;28;20555;-73
2021/09/01 06:52:15;;;;;;;9.82;3.90;;;;;;;;;;5076017;28;20024;-75
2021/09/01 06:54:41;;;;;;;10.43;2.13;;;;;;;;;;5076332;28;20578;-75
2021/09/01 06:57:07;;;;;;;6.68;2.30;;;;;;;;;;5076592;28;20101;-75
2021/09/01 06:59:33;;;;;;;6.20;2.28;;;;;;;;;;5073083;28;20024;-75
2021/09/01 07:01:59;;;;;;;5.25;2.65;;;;;;;;;;5075752;28;20020;-72
2021/09/01 07:04:26;;;;;;;7.57;2.40;;;;;;;;;;5075556;28;20469;-74
2021/09/01 07:06:52;;;;;;;3.13;2.15;;;;;;;;;;5075164;28;20099;-75
2021/09/01 07:09:18;;;;;;;6.95;2.60;;;;;;;;;;5074469;28;20050;-78
2021/09/01 07:11:44;;;;;;;2.83;2.40;;;;;;;;;;5076321;28;20056;-77
2021/09/01 07:14:10;;;;;;;7.93;2.38;;;;;;;;;;5076886;28;20028;-76
2021/09/01 07:16:36;;;;;;;4.85;2.15;;;;;;;;;;5076495;28;20017;-77
2021/09/01 07:19:02;;;;;;;2.30;2.10;;;;;;;;;;5075006;28;20048;-79
2021/09/01 07:21:28;;;;;;;4.85;1.92;;;;;;;;;;5075568;28;20035;-75
2021/09/01 07:23:56;;;;;;;3.83;2.42;;;;;;;;;;5076195;28;20444;-78
2021/09/01 07:26:22;;;;;;;2.90;2.38;;;;;;;;;;5075641;28;20107;-74
2021/09/01 07:28:48;;;;;;;6.53;1.90;;;;;;;;;;5072493;28;20055;-77
2021/09/01 07:31:14;;;;;;;6.78;2.40;;;;;;;;;;5076622;28;20033;-76
2021/09/01 07:33:41;;;;;;;7.25;1.98;;;;;;;;;;5076975;28;20029;-75
2021/09/01 07:36:07;;;;;;;4.90;1.75;;;;;;;;;;5077016;28;20028;-74
2021/09/01 07:38:33;;;;;;;2.75;2.53;;;;;;;;;;5075011;28;20393;-73
2021/09/01 07:40:59;;;;;;;10.38;3.58;;;;;;;;;;5076187;28;20485;-74
2021/09/01 07:43:26;;;;;;;16.02;5.65;;;;;;;;;;5072921;28;20021;-75
2021/09/01 07:45:52;;;;;;;31.40;6.25;;;;;;;;;;5075231;28;20133;-77
2021/09/01 07:48:18;;;;;;;24.60;7.53;;;;;;;;;;5073294;28;20123;-78
2021/09/01 07:50:45;;;;;;;16.90;7.10;;;;;;;;;;5074899;28;20077;-77
2021/09/01 07:53:11;;;;;;;8.93;5.13;;;;;;;;;;5076729;28;20817;-85
2021/09/01 07:55:37;;;;;;;15.52;7.03;;;;;;;;;;5075986;28;20527;-76
2021/09/01 07:58:04;;;;;;;14.02;6.72;;;;;;;;;;5073595;28;20021;-75
2021/09/01 08:00:30;;;;;;;13.35;7.13;;;;;;;;;;5075926;28;20029;-75
2021/09/01 08:02:56;;;;;;;13.07;7.05;;;;;;;;;;5073081;28;20377;-74
2021/09/01 08:05:22;;;;;;;15.32;7.55;;;;;;;;;;5074388;28;20028;-74
2021/09/01 08:07:48;;;;;;;15.00;6.00;;;;;;;;;;5073874;28;20132;-78
2021/09/01 08:10:14;;;;;;;12.27;7.43;;;;;;;;;;5074284;28;20020;-76
2021/09/01 08:12:40;;;;;;;8.60;5.97;;;;;;;;;;5074822;28;20048;-77
2021/09/01 08:15:07;;;;;;;15.50;7.32;;;;;;;;;;5075873;28;20405;-77
2021/09/01 08:17:33;;;;;;;11.10;6.35;;;;;;;;;;5074353;28;20103;-74
2021/09/01 08:19:59;;;;;;;7.18;4.88;;;;;;;;;;5072905;28;20109;-72
2021/09/01 08:22:25;;;;;;;10.02;5.70;;;;;;;;;;5072740;28;20043;-75
2021/09/01 08:24:51;;;;;;;11.20;5.90;;;;;;;;;;5073650;28;20032;-73
2021/09/01 08:27:17;;;;;;;13.30;6.45;;;;;;;;;;5073877;28;20470;-71
2021/09/01 08:29:43;;;;;;;9.05;6.22;;;;;;;;;;5073451;28;20040;-71
2021/09/01 08:32:10;;;;;;;8.93;5.15;;;;;;;;;;5073868;28;20029;-72
2021/09/01 08:34:36;;;;;;;7.28;4.88;;;;;;;;;;5073770;28;20107;-74
2021/09/01 08:37:03;;;;;;;6.60;4.25;;;;;;;;;;5073928;28;20032;-72
2021/09/01 08:39:29;;;;;;;14.65;4.82;;;;;;;;;;5073853;28;20025;-73
2021/09/01 08:41:55;;;;;;;11.90;5.38;;;;;;;;;;5071480;28;20020;-73
2021/09/01 08:44:21;;;;;;;7.07;5.22;;;;;;;;;;5072843;28;20024;-71
2021/09/01 08:46:49;;;;;;;11.30;4.85;;;;;;;;;;5073898;28;20029;-71
2021/09/01 08:49:16;;;;;;;9.02;4.60;;;;;;;;;;5073067;28;20024;-73
2021/09/01 08:52:01;;;;;;;17.38;6.07;;;;;;;;;;5066534;28;20028;-72
2021/09/01 08:54:27;;;;;;;13.77;5.20;;;;;;;;;;5069434;28;20071;-73
2021/09/01 08:56:53;;;;;;;9.13;4.63;;;;;;;;;;5074168;28;20431;-72
2021/09/01 08:59:19;;;;;;;7.55;5.15;;;;;;;;;;5073441;28;20027;-71
2021/09/01 09:01:46;;;;;;;8.85;4.00;;;;;;;;;;5073865;28;20030;-71
2021/09/01 09:04:29;;;;;;;6.30;4.57;;;;;;;;;;5074069;28;20036;-74
2021/09/01 09:06:56;;;;;;;6.30;3.92;;;;;;;;;;5072677;28;20052;-72
2021/09/01 09:09:22;;;;;;;6.80;4.50;;;;;;;;;;5071984;28;20044;-72
2021/09/01 09:11:48;;;;;;;7.18;5.35;;;;;;;;;;5070865;28;20116;-72
2021/09/01 09:14:16;;;;;;;11.23;5.78;;;;;;;;;;5073000;28;20495;-74
2021/09/01 09:16:42;;;;;;;5.47;4.78;;;;;;;;;;5072008;28;20075;-73
2021/09/01 09:19:08;;;;;;;8.65;4.03;;;;;;;;;;5073125;28;20016;-73
2021/09/01 09:21:35;;;;;;;10.55;6.35;;;;;;;;;;5073543;28;20414;-75
2021/09/01 09:24:01;;;;;;;7.40;6.35;;;;;;;;;;5073902;28;20489;-75
2021/09/01 09:26:29;;;;;;;6.28;5.03;;;;;;;;;;5073674;28;20363;-73
2021/09/01 09:29:15;;;;;;;10.05;5.60;;;;;;;;;;5074003;28;20374;-75
2021/09/01 09:31:42;;;;;;;12.90;5.65;;;;;;;;;;5058173;28;20035;-75
2021/09/01 09:34:09;;;;;;;5.50;4.95;;;;;;;;;;5074073;28;20047;-74
2021/09/01 09:36:35;;;;;;;12.35;5.63;;;;;;;;;;5072961;28;20103;-75
2021/09/01 09:39:01;;;;;;;19.95;7.03;;;;;;;;;;5073601;28;20048;-75
2021/09/01 09:41:29;;;;;;;11.45;6.40;;;;;;;;;;5073044;28;20029;-74
2021/09/01 09:43:56;;;;;;;8.68;5.80;;;;;;;;;;5072871;28;20039;-74
2021/09/01 09:46:22;;;;;;;9.45;6.63;;;;;;;;;;5072833;28;20060;-74
2021/09/01 09:48:48;;;;;;;9.73;6.28;;;;;;;;;;5072693;28;20029;-74
2021/09/01 09:51:15;;;;;;;18.58;5.68;;;;;;;;;;5072478;28;20025;-74
2021/09/01 09:53:42;;;;;;;7.13;5.80;;;;;;;;;;5072594;28;20416;-74
2021/09/01 09:56:09;;;;;;;7.00;6.07;;;;;;;;;;5072107;28;20367;-74
2021/09/01 09:58:36;;;;;;;10.63;6.50;;;;;;;;;;5072667;28;20052;-74
2021/09/01 10:01:03;;;;;;;12.63;6.38;;;;;;;;;;5074207;28;20085;-74
2021/09/01 10:03:29;;;;;;;19.45;8.48;;;;;;;;;;5073088;28;20029;-74
2021/09/01 10:05:55;;;;;;;12.77;6.32;;;;;;;;;;5072028;28;20056;-74
2021/09/01 10:08:22;;;;;;;7.15;5.88;;;;;;;;;;5073040;28;20027;-73
2021/09/01 10:10:48;;;;;;;7.10;6.00;;;;;;;;;;5072859;28;20377;-73
2021/09/01 10:13:14;;;;;;;6.03;5.43;;;;;;;;;;5073521;28;20036;-74
2021/09/01 10:15:40;;;;;;;9.50;6.60;;;;;;;;;;5073714;28;20104;-73
2021/09/01 10:18:06;;;;;;;6.50;5.93;;;;;;;;;;5073820;28;20021;-74
2021/09/01 10:20:33;;;;;;;8.18;6.07;;;;;;;;;;5073470;28;20098;-74
2021/09/01 10:23:00;;;;;;;13.52;7.35;;;;;;;;;;5072634;28;20050;-71
2021/09/01 10:25:43;;;;;;;9.65;7.13;;;;;;;;;;5071556;28;20076;-73
2021/09/01 10:28:29;;;;;;;9.43;6.72;;;;;;;;;;5071196;28;20073;-73
2021/09/01 10:31:15;;;;;;;7.07;6.25;;;;;;;;;;5063068;28;20024;-73
2021/09/01 10:33:43;;;;;;;6.68;6.03;;;;;;;;;;5055468;28;20390;-73
2021/09/01 10:36:29;;;;;;;14.15;7.85;;;;;;;;;;5074033;28;20025;-74
2021/09/01 10:38:56;;;;;;;8.90;7.05;;;;;;;;;;5064612;28;20028;-71
2021/09/01 10:41:30;;;;;;;12.73;7.20;;;;;;;;;;5074454;28;20044;-72
2021/09/01 10:43:56;;;;;;;8.27;7.15;;;;;;;;;;5074306;28;20052;-73
2021/09/01 10:46:22;;;;;;;11.48;8.45;;;;;;;;;;5074431;28;20029;-72
2021/09/01 10:48:56;;;;;;;9.00;8.10;;;;;;;;;;5073926;28;20374;-72
2021/09/01 10:51:29;;;;;;;10.45;8.30;;;;;;;;;;5074507;28;20382;-71
2021/09/01 10:54:14;;;;;;;14.30;8.27;;;;;;;;;;5072997;28;20025;-72
2021/09/01 10:56:55;;;;;;;9.13;7.75;;;;;;;;;;5075434;28;20549;-72
2021/09/01 10:59:25;;;;;;;8.60;7.80;;;;;;;;;;5074199;28;20389;-74
2021/09/01 11:02:12;;;;;;;9.50;8.38;;;;;;;;;;5072652;28;20025;-72
2021/09/01 11:04:54;;;;;;;9.02;8.07;;;;;;;;;;5072383;28;20043;-72
2021/09/01 11:07:21;;;;;;;;;;;;;;;;;;5072996;28;20029;-73
2021/09/01 11:09:51;;;;;;;9.65;6.78;;;;;;;;;;5072429;28;20262;-73
2021/09/01 11:12:17;;;;;;;10.40;8.85;;;;;;;;;;5073003;28;20024;-73
2021/09/01 11:14:46;;;;;;;18.05;9.82;;;;;;;;;;5073701;28;20035;-73
2021/09/01 11:17:13;;;;;;;24.13;13.48;;;;;;;;;;5073274;28;20037;-72
2021/09/01 11:19:39;;;;;;;20.83;12.52;;;;;;;;;;5072904;28;20082;-72
2021/09/01 11:22:06;;;;;;;22.27;12.40;;;;;;;;;;5073234;28;20021;-72
2021/09/01 11:24:42;;;;;;;17.98;12.02;;;;;;;;;;5073592;28;20028;-73
2021/09/01 11:27:09;;;;;;;18.05;11.30;;;;;;;;;;5072288;28;20082;-72
2021/09/01 11:29:35;;;;;;;18.58;14.43;;;;;;;;;;5072965;28;20398;-73
2021/09/01 11:32:01;;;;;;;23.35;11.30;;;;;;;;;;5073767;28;20055;-72
2021/09/01 11:34:28;;;;;;;19.15;12.18;;;;;;;;;;5073516;28;20466;-73
2021/09/01 11:36:54;;;;;;;15.38;11.60;;;;;;;;;;5073284;28;20031;-73
2021/09/01 11:39:20;;;;;;;21.17;11.98;;;;;;;;;;5073555;28;20485;-72
2021/09/01 11:41:47;;;;;;;16.10;9.82;;;;;;;;;;5072799;28;20029;-72
2021/09/01 11:44:13;;;;;;;15.07;10.10;;;;;;;;;;5072862;28;20031;-73
2021/09/01 11:46:40;;;;;;;15.68;11.30;;;;;;;;;;5072694;28;20017;-70
2021/09/01 11:49:13;;;;;;;14.32;10.75;;;;;;;;;;5072309;28;20029;-72
2021/09/01 11:51:40;;;;;;;13.20;9.70;;;;;;;;;;5072807;28;20021;-73
2021/09/01 11:54:06;;;;;;;11.40;8.95;;;;;;;;;;5072898;28;20096;-72
2021/09/01 11:56:32;;;;;;;12.40;9.05;;;;;;;;;;5073090;28;20693;-73
2021/09/01 11:59:00;;;;;;;16.73;11.57;;;;;;;;;;5072886;28;20024;-72
2021/09/01 12:01:27;;;;;;;18.77;10.43;;;;;;;;;;5072678;28;20466;-73
2021/09/01 12:03:53;;;;;;;13.65;9.30;;;;;;;;;;5072931;28;20020;-73
2021/09/01 12:06:19;;;;;;;10.88;9.75;;;;;;;;;;5072959;28;20167;-73
2021/09/01 12:08:45;;;;;;;10.32;9.35;;;;;;;;;;5072517;28;20036;-72
2021/09/01 12:11:12;;;;;;;12.98;10.60;;;;;;;;;;5072887;28;20111;-73
2021/09/01 12:13:39;;;;;;;10.35;8.55;;;;;;;;;;5072677;28;20020;-73
2021/09/01 12:16:05;;;;;;;17.48;10.52;;;;;;;;;;5072907;28;20155;-74
2021/09/01 12:18:48;;;;;;;13.05;10.68;;;;;;;;;;5072175;28;20406;-75
2021/09/01 12:21:14;;;;;;;12.57;9.20;;;;;;;;;;5070474;28;20033;-74
2021/09/01 12:23:40;;;;;;;11.75;10.65;;;;;;;;;;5072602;28;20024;-74
2021/09/01 12:26:06;;;;;;;13.27;8.85;;;;;;;;;;5071857;28;20024;-74
2021/09/01 12:28:48;;;;;;;11.45;10.25;;;;;;;;;;5071917;28;20090;-74
2021/09/01 12:31:22;;;;;;;12.65;8.43;;;;;;;;;;5071656;28;20047;-72
2021/09/01 12:33:48;;;;;;;10.70;9.18;;;;;;;;;;5072161;28;20389;-72
2021/09/01 12:36:23;;;;;;;13.05;11.18;;;;;;;;;;5071946;28;20036;-74
2021/09/01 12:38:52;;;;;;;10.55;9.48;;;;;;;;;;5070206;28;20115;-76
2021/09/01 12:41:19;;;;;;;16.33;10.40;;;;;;;;;;5072405;28;20016;-76
2021/09/01 12:43:46;;;;;;;13.25;10.32;;;;;;;;;;5073371;28;20116;-75
2021/09/01 12:46:12;;;;;;;14.43;9.55;;;;;;;;;;5073345;28;20111;-75
2021/09/01 12:48:41;;;;;;;12.00;8.85;;;;;;;;;;5073172;28;20032;-76
2021/09/01 12:51:10;;;;;;;11.95;10.75;;;;;;;;;;5072705;28;20056;-75
2021/09/01 12:53:36;;;;;;;11.65;10.45;;;;;;;;;;5072748;28;20034;-75
2021/09/01 12:56:03;;;;;;;10.18;9.27;;;;;;;;;;5073388;28;20048;-75
2021/09/01 12:58:29;;;;;;;11.38;9.95;;;;;;;;;;5071944;28;20108;-75
2021/09/01 13:00:55;;;;;;;14.52;11.50;;;;;;;;;;5073405;28;20566;-75
2021/09/01 13:03:21;;;;;;;10.45;9.05;;;;;;;;;;5073092;28;20025;-75
2021/09/01 13:05:48;;;;;;;13.38;11.48;;;;;;;;;;5074088;28;20051;-74
2021/09/01 13:08:14;;;;;;;15.05;10.93;;;;;;;;;;5072655;28;20032;-75
2021/09/01 13:10:40;;;;;;;18.50;11.73;;;;;;;;;;5072234;28;20063;-75
2021/09/01 13:13:07;;;;;;;13.55;9.95;;;;;;;;;;5072681;28;20029;-75
2021/09/01 13:15:33;;;;;;;12.80;11.70;;;;;;;;;;5073556;28;20068;-74
2021/09/01 13:17:59;;;;;;;15.40;12.10;;;;;;;;;;5072744;28;20107;-77
2021/09/01 13:20:26;;;;;;;11.35;10.23;;;;;;;;;;5074115;28;20390;-75
2021/09/01 13:22:53;;;;;;;12.20;9.40;;;;;;;;;;5073287;28;20017;-75
2021/09/01 13:25:19;;;;;;;10.05;9.07;;;;;;;;;;5072878;28;20028;-75
2021/09/01 13:27:45;;;;;;;14.02;9.57;;;;;;;;;;5073004;28;20094;-75
2021/09/01 13:30:12;;;;;;;14.50;10.88;;;;;;;;;;5073080;28;20020;-76
2021/09/01 13:32:38;;;;;;;40.20;11.45;;;;;;;;;;5073039;28;20105;-76
2021/09/01 13:35:04;;;;;;;14.02;8.80;;;;;;;;;;5072543;28;20032;-75
2021/09/01 13:37:30;;;;;;;11.18;10.00;;;;;;;;;;5072259;28;20024;-75
2021/09/01 13:39:56;;;;;;;14.80;9.70;;;;;;;;;;5072586;28;20048;-78
2021/09/01 13:42:23;;;;;;;9.80;8.68;;;;;;;;;;5074470;28;20032;-78
2021/09/01 13:44:49;;;;;;;11.07;9.00;;;;;;;;;;5073988;28;20032;-78
2021/09/01 13:47:15;;;;;;;13.80;9.25;;;;;;;;;;5074213;28;20024;-78
2021/09/01 13:49:41;;;;;;;13.43;9.65;;;;;;;;;;5073596;28;20382;-78
2021/09/01 13:52:07;;;;;;;15.07;10.10;;;;;;;;;;5073768;28;20025;-77
2021/09/01 13:54:33;;;;;;;11.75;9.60;;;;;;;;;;5072975;28;20494;-77
2021/09/01 13:57:00;;;;;;;18.13;11.85;;;;;;;;;;5073676;28;20161;-79
2021/09/01 13:59:27;;;;;;;13.57;12.18;;;;;;;;;;5074728;28;20032;-79
2021/09/01 14:01:53;;;;;;;12.20;10.90;;;;;;;;;;5074432;28;20037;-78
2021/09/01 14:04:19;;;;;;;12.07;10.90;;;;;;;;;;5075035;28;20046;-78
2021/09/01 14:06:45;;;;;;;13.18;11.85;;;;;;;;;;5074070;28;20381;-78
2021/09/01 14:09:11;;;;;;;11.52;10.23;;;;;;;;;;5074796;28;20032;-78
2021/09/01 14:11:37;;;;;;;12.05;10.85;;;;;;;;;;5077940;28;20119;-78
2021/09/01 14:14:03;;;;;;;12.43;9.70;;;;;;;;;;5077256;28;20029;-78
2021/09/01 14:16:30;;;;;;;12.13;10.48;;;;;;;;;;5077875;28;20024;-78
2021/09/01 14:18:56;;;;;;;11.98;10.80;;;;;;;;;;5078136;28;20031;-78
2021/09/01 14:21:22;;;;;;;12.48;10.35;;;;;;;;;;5077868;28;20024;-78
2021/09/01 14:23:48;;;;;;;11.20;10.10;;;;;;;;;;5077152;28;20420;-77
2021/09/01 14:26:15;;;;;;;15.30;10.02;;;;;;;;;;5078017;28;20096;-79
2021/09/01 14:28:42;;;;;;;11.77;10.40;;;;;;;;;;5077803;28;20107;-77
2021/09/01 14:31:09;;;;;;;10.52;9.43;;;;;;;;;;5077946;28;20441;-81
2021/09/01 14:33:35;;;;;;;13.02;10.43;;;;;;;;;;5077584;28;20381;-78
2021/09/01 14:36:01;;;;;;;15.93;10.98;;;;;;;;;;5072102;28;20068;-78